createdAt,value
2017-04-05T00:00:31.180Z,11.54
2017-04-05T00:01:31.477Z,11.62
2017-04-05T00:02:31.467Z,11.52
2017-04-05T00:03:31.157Z,11.54
2017-04-05T00:04:31.456Z,11.57
2017-04-05T00:05:31.447Z,11.6
2017-04-05T00:06:31.439Z,11.67
2017-04-05T00:07:31.127Z,11.64
2017-04-05T00:08:31.122Z,11.61
2017-04-05T00:09:31.416Z,11.62
2017-04-05T00:10:31.408Z,11.6
2017-04-05T00:11:31.405Z,11.52
2017-04-05T00:12:31.092Z,11.65
2017-04-05T00:13:31.383Z,11.64
2017-04-05T00:14:31.378Z,11.55
2017-04-05T00:15:31.370Z,11.57
2017-04-05T00:16:31.363Z,11.62
2017-04-05T00:17:31.054Z,11.55
2017-04-05T00:18:31.348Z,11.52
2017-04-05T00:19:31.345Z,11.6
2017-04-05T00:20:31.336Z,11.6
2017-04-05T00:21:31.325Z,11.62
2017-04-05T00:22:31.319Z,11.61
2017-04-05T00:23:31.309Z,11.58
2017-04-05T00:24:30.999Z,11.52
2017-04-05T00:25:31.294Z,11.52
2017-04-05T00:26:31.289Z,11.51
2017-04-05T00:27:31.292Z,11.54
2017-04-05T00:28:31.272Z,11.57
2017-04-05T00:29:31.270Z,11.47
2017-04-05T00:30:31.261Z,11.51
2017-04-05T00:31:30.950Z,11.47
2017-04-05T00:32:31.243Z,11.46
2017-04-05T00:33:31.239Z,11.51
2017-04-05T00:34:31.233Z,11.52
2017-04-05T00:35:31.218Z,11.51
2017-04-05T00:36:31.214Z,11.44
2017-04-05T00:37:31.205Z,11.43
2017-04-05T00:38:31.198Z,11.44
2017-04-05T00:39:31.190Z,11.43
2017-04-05T00:40:31.182Z,11.43
2017-04-05T00:41:31.174Z,11.44
2017-04-05T00:42:31.170Z,11.43
2017-04-05T00:43:31.159Z,11.43
2017-04-05T00:44:31.151Z,11.42
2017-04-05T00:45:31.147Z,11.39
2017-04-05T00:46:30.832Z,11.36
2017-04-05T00:47:30.825Z,11.47
2017-04-05T00:48:31.130Z,11.43
2017-04-05T00:49:31.113Z,11.37
2017-04-05T00:50:31.106Z,11.49
2017-04-05T00:51:31.101Z,11.4
2017-04-05T00:52:31.096Z,11.44
2017-04-05T00:53:31.111Z,11.42
2017-04-05T00:54:31.075Z,11.47
2017-04-05T00:55:31.095Z,11.51
2017-04-05T00:56:31.060Z,11.46
2017-04-05T00:57:31.054Z,11.51
2017-04-05T00:58:30.746Z,11.51
2017-04-05T00:59:31.038Z,11.52
2017-04-05T01:00:31.030Z,11.52
2017-04-05T01:01:31.020Z,11.54
2017-04-05T01:02:31.039Z,11.54
2017-04-05T01:03:31.005Z,11.54
2017-04-05T01:04:30.999Z,11.49
2017-04-05T01:05:30.993Z,11.54
2017-04-05T01:06:30.985Z,11.54
2017-04-05T01:07:30.978Z,11.54
2017-04-05T01:08:30.663Z,11.49
2017-04-05T01:09:30.657Z,11.57
2017-04-05T01:10:30.955Z,11.54
2017-04-05T01:11:30.946Z,11.46
2017-04-05T01:12:30.939Z,11.52
2017-04-05T01:13:30.932Z,11.49
2017-04-05T01:14:30.925Z,11.55
2017-04-05T01:15:30.919Z,11.52
2017-04-05T01:16:30.911Z,11.47
2017-04-05T01:17:30.900Z,11.46
2017-04-05T01:18:30.588Z,11.43
2017-04-05T01:19:30.887Z,11.46
2017-04-05T01:20:30.878Z,11.44
2017-04-05T01:21:30.871Z,11.49
2017-04-05T01:22:30.868Z,11.44
2017-04-05T01:23:30.856Z,11.44
2017-04-05T01:24:30.543Z,11.52
2017-04-05T01:25:30.847Z,11.44
2017-04-05T01:26:30.833Z,11.49
2017-04-05T01:27:30.823Z,11.46
2017-04-05T01:28:30.817Z,11.4
2017-04-05T01:29:30.810Z,11.4
2017-04-05T01:30:30.803Z,11.43
2017-04-05T01:31:30.793Z,11.43
2017-04-05T01:32:30.801Z,11.44
2017-04-05T01:33:30.779Z,11.42
2017-04-05T01:34:30.468Z,11.4
2017-04-05T01:35:30.462Z,11.35
2017-04-05T01:36:30.755Z,11.4
2017-04-05T01:37:30.747Z,11.43
2017-04-05T01:38:30.739Z,11.35
2017-04-05T01:39:30.731Z,11.4
2017-04-05T01:40:30.421Z,11.32
2017-04-05T01:41:30.717Z,11.35
2017-04-05T01:42:30.407Z,11.32
2017-04-05T01:43:30.704Z,11.24
2017-04-05T01:44:30.395Z,11.28
2017-04-05T01:45:30.687Z,11.28
2017-04-05T01:46:30.377Z,11.29
2017-04-05T01:47:30.371Z,11.25
2017-04-05T01:48:30.662Z,11.24
2017-04-05T01:49:30.659Z,11.29
2017-04-05T01:50:30.349Z,11.28
2017-04-05T01:51:30.642Z,11.25
2017-04-05T01:52:30.636Z,11.27
2017-04-05T01:53:30.326Z,11.22
2017-04-05T01:54:30.623Z,11.24
2017-04-05T01:55:30.609Z,11.27
2017-04-05T01:56:30.603Z,11.25
2017-04-05T01:57:30.598Z,11.36
2017-04-05T01:58:30.586Z,11.35
2017-04-05T01:59:30.580Z,11.19
2017-04-05T02:00:30.569Z,11.29
2017-04-05T02:01:30.259Z,11.27
2017-04-05T02:02:30.555Z,11.27
2017-04-05T02:03:30.545Z,11.35
2017-04-05T02:04:30.539Z,11.32
2017-04-05T02:05:30.532Z,11.4
2017-04-05T02:06:30.527Z,11.32
2017-04-05T02:07:30.515Z,11.46
2017-04-05T02:08:30.508Z,11.43
2017-04-05T02:09:30.500Z,11.36
2017-04-05T02:10:30.493Z,11.43
2017-04-05T02:11:30.485Z,11.44
2017-04-05T02:12:30.478Z,11.37
2017-04-05T02:13:30.470Z,11.42
2017-04-05T02:14:30.461Z,11.39
2017-04-05T02:15:30.458Z,11.47
2017-04-05T02:16:30.448Z,11.46
2017-04-05T02:17:30.445Z,11.47
2017-04-05T02:18:30.431Z,11.49
2017-04-05T02:19:30.429Z,11.51
2017-04-05T02:20:30.419Z,11.51
2017-04-05T02:21:30.409Z,11.52
2017-04-05T02:22:30.407Z,11.49
2017-04-05T02:23:30.393Z,11.47
2017-04-05T02:24:30.389Z,11.52
2017-04-05T02:25:30.378Z,11.58
2017-04-05T02:26:30.377Z,11.55
2017-04-05T02:27:30.369Z,11.64
2017-04-05T02:28:30.355Z,11.55
2017-04-05T02:29:30.350Z,11.6
2017-04-05T02:30:30.349Z,11.64
2017-04-05T02:31:30.365Z,11.57
2017-04-05T02:32:30.326Z,11.49
2017-04-05T02:33:30.320Z,11.58
2017-04-05T02:34:30.312Z,11.57
2017-04-05T02:35:30.307Z,11.54
2017-04-05T02:36:30.301Z,11.47
2017-04-05T02:37:30.288Z,11.46
2017-04-05T02:38:30.282Z,11.43
2017-04-05T02:39:30.274Z,11.44
2017-04-05T02:40:30.270Z,11.43
2017-04-05T02:41:30.291Z,11.36
2017-04-05T02:42:30.255Z,11.43
2017-04-05T02:43:30.241Z,11.39
2017-04-05T02:44:30.236Z,11.32
2017-04-05T02:45:30.228Z,11.37
2017-04-05T02:46:30.223Z,11.37
2017-04-05T02:47:30.215Z,11.29
2017-04-05T02:48:30.205Z,11.33
2017-04-05T02:49:30.544Z,11.33
2017-04-05T02:50:30.188Z,11.33
2017-04-05T02:51:30.182Z,11.22
2017-04-05T02:52:30.177Z,11.24
2017-04-05T02:53:29.863Z,11.28
2017-04-05T02:54:30.157Z,11.25
2017-04-05T02:55:30.152Z,11.29
2017-04-05T02:56:30.142Z,11.24
2017-04-05T02:57:30.136Z,11.22
2017-04-05T02:58:30.130Z,11.18
2017-04-05T02:59:30.120Z,11.29
2017-04-05T03:00:30.113Z,11.25
2017-04-05T03:01:30.103Z,11.24
2017-04-05T03:02:30.119Z,11.22
2017-04-05T03:03:30.091Z,11.29
2017-04-05T03:04:30.082Z,11.29
2017-04-05T03:05:30.076Z,11.28
2017-04-05T03:06:30.071Z,11.25
2017-04-05T03:07:30.059Z,11.21
2017-04-05T03:08:30.049Z,11.33
2017-04-05T03:09:30.042Z,11.32
2017-04-05T03:10:30.033Z,11.22
2017-04-05T03:11:30.028Z,11.22
2017-04-05T03:12:30.018Z,11.27
2017-04-05T03:13:29.714Z,11.33
2017-04-05T03:14:30.003Z,11.21
2017-04-05T03:15:29.999Z,11.36
2017-04-05T03:16:29.986Z,11.32
2017-04-05T03:17:29.981Z,11.29
2017-04-05T03:18:29.976Z,11.32
2017-04-05T03:19:29.965Z,11.29
2017-04-05T03:20:29.959Z,11.35
2017-04-05T03:21:29.950Z,11.24
2017-04-05T03:22:29.639Z,11.29
2017-04-05T03:23:29.629Z,11.33
2017-04-05T03:24:29.925Z,11.32
2017-04-05T03:25:29.623Z,11.24
2017-04-05T03:26:29.610Z,11.29
2017-04-05T03:27:29.904Z,11.36
2017-04-05T03:28:29.895Z,11.33
2017-04-05T03:29:29.893Z,11.27
2017-04-05T03:30:30.130Z,11.25
2017-04-05T03:31:29.874Z,11.36
2017-04-05T03:32:29.863Z,11.24
2017-04-05T03:33:29.858Z,11.32
2017-04-05T03:34:29.848Z,11.22
2017-04-05T03:35:29.840Z,11.29
2017-04-05T03:36:29.832Z,11.28
2017-04-05T03:37:29.828Z,11.27
2017-04-05T03:38:29.815Z,11.19
2017-04-05T03:39:29.810Z,11.29
2017-04-05T03:40:29.800Z,11.24
2017-04-05T03:41:29.805Z,11.36
2017-04-05T03:42:29.785Z,11.35
2017-04-05T03:43:29.778Z,11.27
2017-04-05T03:44:29.772Z,11.35
2017-04-05T03:45:29.763Z,11.28
2017-04-05T03:46:29.755Z,11.28
2017-04-05T03:47:29.748Z,11.36
2017-04-05T03:48:29.739Z,11.42
2017-04-05T03:49:29.731Z,11.35
2017-04-05T03:50:29.725Z,11.4
2017-04-05T03:51:29.719Z,11.42
2017-04-05T03:52:29.714Z,11.42
2017-04-05T03:53:29.705Z,11.46
2017-04-05T03:54:29.695Z,11.39
2017-04-05T03:55:29.689Z,11.37
2017-04-05T03:56:29.705Z,11.4
2017-04-05T03:57:29.671Z,11.42
2017-04-05T03:58:29.662Z,11.37
2017-04-05T03:59:29.657Z,11.37
2017-04-05T04:00:29.649Z,11.4
2017-04-05T04:01:29.642Z,11.4
2017-04-05T04:02:29.634Z,11.49
2017-04-05T04:03:29.623Z,11.51
2017-04-05T04:04:29.617Z,11.51
2017-04-05T04:05:29.610Z,11.47
2017-04-05T04:06:29.603Z,11.51
2017-04-05T04:07:29.595Z,11.52
2017-04-05T04:08:29.585Z,11.54
2017-04-05T04:09:29.581Z,11.54
2017-04-05T04:10:29.574Z,11.51
2017-04-05T04:11:29.565Z,11.57
2017-04-05T04:12:29.556Z,11.58
2017-04-05T04:13:29.550Z,11.57
2017-04-05T04:14:29.540Z,11.6
2017-04-05T04:15:29.534Z,11.62
2017-04-05T04:16:29.533Z,11.52
2017-04-05T04:17:29.517Z,11.6
2017-04-05T04:18:29.513Z,11.57
2017-04-05T04:19:29.503Z,11.52
2017-04-05T04:20:29.499Z,11.61
2017-04-05T04:21:29.489Z,11.62
2017-04-05T04:22:29.481Z,11.65
2017-04-05T04:23:29.482Z,11.6
2017-04-05T04:24:29.467Z,11.62
2017-04-05T04:25:29.459Z,11.64
2017-04-05T04:26:29.453Z,11.65
2017-04-05T04:27:29.447Z,11.7
2017-04-05T04:28:29.435Z,11.64
2017-04-05T04:29:29.431Z,11.72
2017-04-05T04:30:29.421Z,11.7
2017-04-05T04:31:29.414Z,11.72
2017-04-05T04:32:29.410Z,11.72
2017-04-05T04:33:29.397Z,11.75
2017-04-05T04:34:29.390Z,11.64
2017-04-05T04:35:29.385Z,11.7
2017-04-05T04:36:29.375Z,11.7
2017-04-05T04:37:29.366Z,11.76
2017-04-05T04:38:29.361Z,11.7
2017-04-05T04:39:29.352Z,11.72
2017-04-05T04:40:29.366Z,11.72
2017-04-05T04:41:29.363Z,11.75
2017-04-05T04:42:29.332Z,11.79
2017-04-05T04:43:29.327Z,11.76
2017-04-05T04:44:29.317Z,11.72
2017-04-05T04:45:29.312Z,11.76
2017-04-05T04:46:29.300Z,11.83
2017-04-05T04:47:29.293Z,11.75
2017-04-05T04:48:29.284Z,11.76
2017-04-05T04:49:29.278Z,11.8
2017-04-05T04:50:29.275Z,11.8
2017-04-05T04:51:29.264Z,11.73
2017-04-05T04:52:29.256Z,11.76
2017-04-05T04:53:29.248Z,11.76
2017-04-05T04:54:29.241Z,11.76
2017-04-05T04:55:29.238Z,11.8
2017-04-05T04:56:29.228Z,11.8
2017-04-05T04:57:29.219Z,11.82
2017-04-05T04:58:29.210Z,11.79
2017-04-05T04:59:29.202Z,11.83
2017-04-05T05:00:29.205Z,11.86
2017-04-05T05:01:29.190Z,11.82
2017-04-05T05:02:29.180Z,11.82
2017-04-05T05:03:29.179Z,11.82
2017-04-05T05:04:28.866Z,11.85
2017-04-05T05:05:29.162Z,11.79
2017-04-05T05:06:28.855Z,11.85
2017-04-05T05:07:29.145Z,11.83
2017-04-05T05:08:29.138Z,11.85
2017-04-05T05:09:29.138Z,11.82
2017-04-05T05:10:29.123Z,11.88
2017-04-05T05:11:29.117Z,11.8
2017-04-05T05:12:29.107Z,11.86
2017-04-05T05:13:29.104Z,11.76
2017-04-05T05:14:28.800Z,11.8
2017-04-05T05:15:29.089Z,11.76
2017-04-05T05:16:29.080Z,11.79
2017-04-05T05:17:29.073Z,11.79
2017-04-05T05:18:28.763Z,11.8
2017-04-05T05:19:29.057Z,11.83
2017-04-05T05:20:29.055Z,11.73
2017-04-05T05:21:29.045Z,11.79
2017-04-05T05:22:29.035Z,11.72
2017-04-05T05:23:29.027Z,11.8
2017-04-05T05:24:29.018Z,11.69
2017-04-05T05:25:29.014Z,11.75
2017-04-05T05:26:29.006Z,11.72
2017-04-05T05:27:29.001Z,11.8
2017-04-05T05:28:28.990Z,11.8
2017-04-05T05:29:28.682Z,11.76
2017-04-05T05:30:28.979Z,11.79
2017-04-05T05:31:28.974Z,11.86
2017-04-05T05:32:28.965Z,11.79
2017-04-05T05:33:28.653Z,11.85
2017-04-05T05:34:28.648Z,11.85
2017-04-05T05:35:28.638Z,11.79
2017-04-05T05:36:28.936Z,11.8
2017-04-05T05:37:28.627Z,11.82
2017-04-05T05:38:28.920Z,11.85
2017-04-05T05:39:28.607Z,11.95
2017-04-05T05:40:28.905Z,11.9
2017-04-05T05:41:28.898Z,11.98
2017-04-05T05:42:28.890Z,12.13
2017-04-05T05:43:28.882Z,12.09
2017-04-05T05:44:28.573Z,12.12
2017-04-05T05:45:28.569Z,12.14
2017-04-05T05:46:28.557Z,12.24
2017-04-05T05:47:28.553Z,12.27
2017-04-05T05:48:28.849Z,12.37
2017-04-05T05:49:28.842Z,12.39
2017-04-05T05:50:28.834Z,12.39
2017-04-05T05:51:28.525Z,12.49
2017-04-05T05:52:28.823Z,12.49
2017-04-05T05:53:28.812Z,12.53
2017-04-05T05:54:28.810Z,12.56
2017-04-05T05:55:28.805Z,12.65
2017-04-05T05:56:28.796Z,12.71
2017-04-05T05:57:28.787Z,12.7
2017-04-05T05:58:28.780Z,12.72
2017-04-05T05:59:28.780Z,12.72
2017-04-05T06:00:28.769Z,12.78
2017-04-05T06:01:28.762Z,12.75
2017-04-05T06:02:28.452Z,12.89
2017-04-05T06:03:28.751Z,12.89
2017-04-05T06:04:28.744Z,12.87
2017-04-05T06:05:28.734Z,12.85
2017-04-05T06:06:28.730Z,13
2017-04-05T06:07:28.723Z,13.03
2017-04-05T06:08:28.721Z,13.03
2017-04-05T06:09:28.408Z,12.97
2017-04-05T06:10:28.916Z,13.05
2017-04-05T06:11:28.699Z,13.05
2017-04-05T06:12:28.387Z,13.11
2017-04-05T06:13:28.685Z,13.11
2017-04-05T06:14:28.682Z,13.11
2017-04-05T06:15:28.677Z,13.14
2017-04-05T06:16:28.665Z,13.19
2017-04-05T06:17:28.665Z,13.26
2017-04-05T06:18:28.657Z,13.25
2017-04-05T06:19:28.347Z,13.2
2017-04-05T06:20:28.644Z,13.25
2017-04-05T06:21:28.636Z,13.22
2017-04-05T06:22:28.633Z,13.25
2017-04-05T06:23:28.624Z,13.25
2017-04-05T06:24:28.616Z,13.26
2017-04-05T06:25:28.612Z,13.28
2017-04-05T06:26:28.607Z,13.28
2017-04-05T06:27:28.598Z,13.33
2017-04-05T06:28:28.597Z,13.32
2017-04-05T06:29:28.283Z,13.33
2017-04-05T06:30:28.582Z,13.39
2017-04-05T06:31:28.573Z,13.38
2017-04-05T06:32:28.569Z,13.33
2017-04-05T06:33:28.256Z,13.25
2017-04-05T06:34:28.554Z,13.3
2017-04-05T06:35:28.251Z,13.3
2017-04-05T06:36:28.550Z,13.2
2017-04-05T06:37:28.535Z,13.38
2017-04-05T06:38:28.229Z,13.32
2017-04-05T06:39:28.524Z,13.23
2017-04-05T06:40:28.524Z,13.29
2017-04-05T06:41:28.512Z,13.36
2017-04-05T06:42:28.508Z,13.32
2017-04-05T06:43:28.499Z,13.32
2017-04-05T06:44:28.492Z,13.26
2017-04-05T06:45:28.489Z,13.22
2017-04-05T06:46:28.480Z,13.26
2017-04-05T06:47:28.479Z,13.3
2017-04-05T06:48:28.469Z,13.26
2017-04-05T06:49:28.166Z,13.32
2017-04-05T06:50:28.462Z,13.38
2017-04-05T06:51:28.452Z,13.39
2017-04-05T06:52:28.447Z,13.39
2017-04-05T06:53:28.139Z,13.38
2017-04-05T06:54:28.132Z,13.48
2017-04-05T06:55:28.429Z,13.55
2017-04-05T06:56:28.421Z,13.49
2017-04-05T06:57:28.417Z,13.59
2017-04-05T06:58:28.410Z,13.63
2017-04-05T06:59:28.411Z,13.66
2017-04-05T07:00:28.397Z,13.63
2017-04-05T07:01:28.399Z,13.63
2017-04-05T07:02:28.391Z,13.59
2017-04-05T07:03:28.383Z,13.66
2017-04-05T07:04:28.374Z,13.6
2017-04-05T07:05:28.371Z,13.69
2017-04-05T07:06:28.364Z,13.73
2017-04-05T07:07:28.365Z,13.81
2017-04-05T07:08:28.350Z,13.84
2017-04-05T07:09:28.347Z,13.81
2017-04-05T07:10:28.339Z,13.81
2017-04-05T07:11:28.342Z,13.85
2017-04-05T07:12:28.328Z,13.88
2017-04-05T07:13:28.320Z,13.89
2017-04-05T07:14:28.316Z,13.87
2017-04-05T07:15:28.322Z,13.97
2017-04-05T07:16:28.311Z,13.92
2017-04-05T07:17:28.301Z,14.03
2017-04-05T07:18:28.293Z,14.07
2017-04-05T07:19:28.290Z,13.96
2017-04-05T07:20:28.284Z,14.03
2017-04-05T07:21:28.282Z,14.09
2017-04-05T07:22:27.967Z,14.06
2017-04-05T07:23:28.266Z,14.09
2017-04-05T07:24:28.260Z,14.12
2017-04-05T07:25:28.254Z,14.12
2017-04-05T07:26:28.249Z,14.12
2017-04-05T07:27:28.244Z,14.03
2017-04-05T07:28:28.239Z,14.14
2017-04-05T07:29:28.237Z,14.07
2017-04-05T07:30:28.230Z,14.15
2017-04-05T07:31:28.220Z,14.18
2017-04-05T07:32:28.216Z,14.17
2017-04-05T07:33:28.212Z,14.24
2017-04-05T07:34:28.210Z,14.27
2017-04-05T07:35:28.201Z,14.21
2017-04-05T07:36:28.194Z,14.32
2017-04-05T07:37:28.189Z,14.35
2017-04-05T07:38:28.184Z,14.29
2017-04-05T07:39:28.175Z,14.24
2017-04-05T07:40:28.172Z,14.27
2017-04-05T07:41:28.166Z,14.37
2017-04-05T07:42:28.162Z,14.45
2017-04-05T07:43:28.155Z,14.52
2017-04-05T07:44:28.153Z,14.57
2017-04-05T07:45:28.146Z,14.54
2017-04-05T07:46:28.140Z,14.61
2017-04-05T07:47:28.135Z,14.58
2017-04-05T07:48:28.128Z,14.55
2017-04-05T07:49:28.127Z,14.78
2017-04-05T07:50:28.116Z,14.75
2017-04-05T07:51:28.115Z,14.81
2017-04-05T07:52:28.108Z,14.89
2017-04-05T07:53:28.131Z,14.92
2017-04-05T07:54:28.099Z,15.06
2017-04-05T07:55:28.094Z,15.28
2017-04-05T07:56:28.089Z,15.27
2017-04-05T07:57:28.082Z,15.32
2017-04-05T07:58:27.776Z,15.46
2017-04-05T07:59:28.076Z,15.5
2017-04-05T08:00:28.075Z,15.51
2017-04-05T08:01:27.456Z,15.56
2017-04-05T08:02:27.761Z,15.49
2017-04-05T08:03:28.055Z,15.64
2017-04-05T08:04:28.058Z,15.57
2017-04-05T08:05:28.047Z,15.74
2017-04-05T08:06:28.050Z,15.76
2017-04-05T08:07:28.041Z,15.84
2017-04-05T08:08:28.034Z,15.97
2017-04-05T08:09:27.725Z,16
2017-04-05T08:10:28.023Z,16.07
2017-04-05T08:11:28.021Z,16.12
2017-04-05T08:12:28.021Z,16.09
2017-04-05T08:13:28.017Z,16.23
2017-04-05T08:14:28.015Z,16.21
2017-04-05T08:15:27.702Z,16.33
2017-04-05T08:16:27.699Z,16.45
2017-04-05T08:17:27.694Z,16.45
2017-04-05T08:18:27.995Z,16.5
2017-04-05T08:19:27.992Z,16.64
2017-04-05T08:20:27.682Z,16.73
2017-04-05T08:21:27.980Z,16.75
2017-04-05T08:22:27.983Z,16.86
2017-04-05T08:23:27.671Z,17.07
2017-04-05T08:24:27.669Z,17.14
2017-04-05T08:25:27.663Z,17.22
2017-04-05T08:26:27.665Z,17.37
2017-04-05T08:27:27.961Z,17.55
2017-04-05T08:28:27.656Z,17.68
2017-04-05T08:29:27.650Z,17.78
2017-04-05T08:30:27.648Z,17.9
2017-04-05T08:31:27.949Z,18.12
2017-04-05T08:32:27.950Z,18.15
2017-04-05T08:33:27.945Z,18.25
2017-04-05T08:34:27.641Z,18.36
2017-04-05T08:35:27.941Z,18.42
2017-04-05T08:36:27.941Z,18.47
2017-04-05T08:37:27.935Z,18.52
2017-04-05T08:38:27.939Z,18.57
2017-04-05T08:39:27.931Z,18.54
2017-04-05T08:40:27.938Z,18.51
2017-04-05T08:41:27.932Z,18.54
2017-04-05T08:42:27.928Z,18.57
2017-04-05T08:43:27.925Z,18.52
2017-04-05T08:44:27.922Z,18.5
2017-04-05T08:45:27.921Z,18.48
2017-04-05T08:46:27.921Z,18.55
2017-04-05T08:47:27.919Z,18.62
2017-04-05T08:48:27.610Z,18.66
2017-04-05T08:49:27.614Z,18.78
2017-04-05T08:50:27.914Z,18.73
2017-04-05T08:51:27.911Z,18.8
2017-04-05T08:52:27.908Z,18.8
2017-04-05T08:53:27.914Z,18.9
2017-04-05T08:54:27.906Z,19.07
2017-04-05T08:55:27.905Z,19.02
2017-04-05T08:56:27.907Z,19.18
2017-04-05T08:57:27.906Z,19.28
2017-04-05T08:58:27.905Z,19.39
2017-04-05T08:59:27.904Z,19.4
2017-04-05T09:00:27.900Z,19.56
2017-04-05T09:01:27.904Z,19.71
2017-04-05T09:02:27.596Z,19.91
2017-04-05T09:03:27.898Z,19.92
2017-04-05T09:04:27.897Z,20.1
2017-04-05T09:05:27.903Z,20.16
2017-04-05T09:06:27.897Z,20.31
2017-04-05T09:07:27.900Z,20.39
2017-04-05T09:08:27.899Z,20.54
2017-04-05T09:09:27.899Z,20.58
2017-04-05T09:10:27.898Z,20.59
2017-04-05T09:11:27.898Z,20.66
2017-04-05T09:12:27.899Z,20.8
2017-04-05T09:13:27.593Z,20.77
2017-04-05T09:14:27.624Z,20.87
2017-04-05T09:15:27.597Z,20.88
2017-04-05T09:16:27.901Z,20.94
2017-04-05T09:17:27.899Z,20.87
2017-04-05T09:18:27.900Z,20.85
2017-04-05T09:19:27.596Z,20.84
2017-04-05T09:20:27.902Z,20.8
2017-04-05T09:21:27.903Z,20.82
2017-04-05T09:22:27.599Z,20.8
2017-04-05T09:23:27.901Z,20.8
2017-04-05T09:24:27.904Z,20.82
2017-04-05T09:25:27.901Z,20.69
2017-04-05T09:26:27.903Z,20.66
2017-04-05T09:27:27.903Z,20.59
2017-04-05T09:28:27.903Z,20.55
2017-04-05T09:29:27.909Z,20.38
2017-04-05T09:30:27.904Z,20.39
2017-04-05T09:31:27.907Z,20.42
2017-04-05T09:32:27.904Z,20.38
2017-04-05T09:33:27.911Z,20.38
2017-04-05T09:34:27.904Z,20.35
2017-04-05T09:35:27.904Z,20.39
2017-04-05T09:36:27.906Z,20.29
2017-04-05T09:37:27.602Z,20.29
2017-04-05T09:38:27.907Z,20.29
2017-04-05T09:39:27.911Z,20.32
2017-04-05T09:40:27.909Z,20.42
2017-04-05T09:41:27.913Z,20.41
2017-04-05T09:42:27.907Z,20.5
2017-04-05T09:43:27.603Z,20.48
2017-04-05T09:44:27.910Z,20.59
2017-04-05T09:45:27.909Z,20.61
2017-04-05T09:46:27.908Z,20.7
2017-04-05T09:47:27.909Z,20.7
2017-04-05T09:48:27.906Z,20.72
2017-04-05T09:49:27.908Z,20.82
2017-04-05T09:50:27.912Z,20.72
2017-04-05T09:51:27.910Z,20.8
2017-04-05T09:52:27.912Z,20.94
2017-04-05T09:53:27.910Z,21.06
2017-04-05T09:54:27.911Z,21.13
2017-04-05T09:55:27.912Z,21.12
2017-04-05T09:56:27.915Z,21.12
2017-04-05T09:57:27.913Z,21.17
2017-04-05T09:58:27.609Z,21.07
2017-04-05T09:59:27.912Z,21.09
2017-04-05T10:00:27.920Z,21.12
2017-04-05T10:01:28.215Z,21.06
2017-04-05T10:02:27.916Z,21.09
2017-04-05T10:03:27.958Z,21.13
2017-04-05T10:04:27.927Z,21.09
2017-04-05T10:05:27.922Z,21.12
2017-04-05T10:06:27.928Z,21.09
2017-04-05T10:07:27.923Z,21.01
2017-04-05T10:08:27.616Z,20.99
2017-04-05T10:09:27.921Z,20.97
2017-04-05T10:10:27.920Z,20.95
2017-04-05T10:11:27.928Z,20.92
2017-04-05T10:12:27.921Z,20.92
2017-04-05T10:13:27.925Z,20.97
2017-04-05T10:14:27.921Z,20.98
2017-04-05T10:15:27.925Z,21.01
2017-04-05T10:16:27.923Z,20.98
2017-04-05T10:17:27.925Z,21.06
2017-04-05T10:18:27.922Z,21.07
2017-04-05T10:19:27.926Z,21.13
2017-04-05T10:20:27.930Z,21.16
2017-04-05T10:21:27.945Z,21.16
2017-04-05T10:22:27.928Z,21.27
2017-04-05T10:23:27.926Z,21.31
2017-04-05T10:24:27.932Z,21.35
2017-04-05T10:25:27.928Z,21.4
2017-04-05T10:26:27.932Z,21.47
2017-04-05T10:27:27.927Z,21.49
2017-04-05T10:28:27.935Z,21.62
2017-04-05T10:29:27.932Z,21.61
2017-04-05T10:30:27.932Z,21.59
2017-04-05T10:31:27.938Z,21.61
2017-04-05T10:32:27.942Z,21.59
2017-04-05T10:33:27.938Z,21.61
2017-04-05T10:34:27.939Z,21.54
2017-04-05T10:35:27.938Z,21.64
2017-04-05T10:36:27.938Z,21.64
2017-04-05T10:37:27.639Z,21.61
2017-04-05T10:38:27.940Z,21.54
2017-04-05T10:39:27.947Z,21.62
2017-04-05T10:40:27.636Z,21.64
2017-04-05T10:41:27.940Z,21.61
2017-04-05T10:42:27.942Z,21.61
2017-04-05T10:43:27.640Z,21.62
2017-04-05T10:44:27.943Z,21.58
2017-04-05T10:45:27.952Z,21.49
2017-04-05T10:46:27.944Z,21.54
2017-04-05T10:47:27.950Z,21.54
2017-04-05T10:48:27.949Z,21.44
2017-04-05T10:49:27.945Z,21.37
2017-04-05T10:50:27.948Z,21.35
2017-04-05T10:51:27.945Z,21.19
2017-04-05T10:52:27.644Z,21.25
2017-04-05T10:53:27.947Z,21.13
2017-04-05T10:54:27.650Z,21.06
2017-04-05T10:55:27.950Z,20.98
2017-04-05T10:56:27.949Z,20.74
2017-04-05T10:57:27.952Z,20.66
2017-04-05T10:58:27.948Z,20.66
2017-04-05T10:59:27.949Z,20.7
2017-04-05T11:00:27.948Z,20.79
2017-04-05T11:01:27.647Z,20.97
2017-04-05T11:02:27.646Z,21.1
2017-04-05T11:03:27.951Z,21.17
2017-04-05T11:04:27.954Z,21.16
2017-04-05T11:05:27.949Z,21.25
2017-04-05T11:06:27.951Z,21.16
2017-04-05T11:07:27.950Z,21.28
2017-04-05T11:08:27.952Z,21.27
2017-04-05T11:09:27.952Z,21.28
2017-04-05T11:10:27.985Z,21.29
2017-04-05T11:11:27.647Z,21.35
2017-04-05T11:12:27.954Z,21.37
2017-04-05T11:13:27.957Z,21.4
2017-04-05T11:14:27.958Z,21.47
2017-04-05T11:15:27.957Z,21.53
2017-04-05T11:16:27.954Z,21.61
2017-04-05T11:17:27.652Z,21.62
2017-04-05T11:18:27.956Z,21.75
2017-04-05T11:19:27.961Z,21.83
2017-04-05T11:20:27.961Z,21.92
2017-04-05T11:21:27.959Z,21.83
2017-04-05T11:22:27.961Z,21.79
2017-04-05T11:23:27.656Z,21.86
2017-04-05T11:24:27.971Z,21.96
2017-04-05T11:25:27.965Z,21.94
2017-04-05T11:26:27.967Z,21.91
2017-04-05T11:27:27.965Z,22.09
2017-04-05T11:28:27.967Z,22.05
2017-04-05T11:29:27.967Z,22.2
2017-04-05T11:30:27.969Z,22.31
2017-04-05T11:31:27.976Z,22.46
2017-04-05T11:32:27.668Z,22.49
2017-04-05T11:33:27.973Z,22.58
2017-04-05T11:34:27.673Z,22.62
2017-04-05T11:35:27.977Z,22.62
2017-04-05T11:36:27.707Z,22.55
2017-04-05T11:37:27.981Z,22.58
2017-04-05T11:38:27.989Z,22.33
2017-04-05T11:39:27.987Z,22.28
2017-04-05T11:40:27.984Z,22.17
2017-04-05T11:41:27.990Z,21.99
2017-04-05T11:42:27.992Z,21.8
2017-04-05T11:43:27.991Z,21.65
2017-04-05T11:44:28.000Z,21.47
2017-04-05T11:45:27.995Z,21.34
2017-04-05T11:46:27.995Z,21.13
2017-04-05T11:47:27.995Z,21.03
2017-04-05T11:48:27.994Z,20.79
2017-04-05T11:49:27.994Z,20.61
2017-04-05T11:50:28.001Z,20.42
2017-04-05T11:51:27.999Z,20.35
2017-04-05T11:52:27.697Z,20.26
2017-04-05T11:53:27.701Z,20.05
2017-04-05T11:54:27.997Z,19.99
2017-04-05T11:55:27.998Z,19.92
2017-04-05T11:56:27.997Z,19.95
2017-04-05T11:57:27.998Z,19.95
2017-04-05T11:58:27.997Z,19.91
2017-04-05T11:59:28.000Z,19.91
2017-04-05T12:00:27.996Z,20.08
2017-04-05T12:01:27.698Z,19.99
2017-04-05T12:02:27.694Z,19.98
2017-04-05T12:03:27.997Z,20.03
2017-04-05T12:04:27.991Z,20.1
2017-04-05T12:05:27.991Z,20.21
2017-04-05T12:06:27.990Z,20.06
2017-04-05T12:07:27.999Z,20.18
2017-04-05T12:08:27.995Z,20.16
2017-04-05T12:09:27.990Z,20.2
2017-04-05T12:10:27.987Z,20.24
2017-04-05T12:11:27.991Z,20.24
2017-04-05T12:12:27.985Z,20.21
2017-04-05T12:13:27.679Z,20.18
2017-04-05T12:14:27.982Z,20.28
2017-04-05T12:15:27.992Z,20.05
2017-04-05T12:16:27.986Z,20.03
2017-04-05T12:17:27.983Z,20.02
2017-04-05T12:18:27.979Z,19.94
2017-04-05T12:19:27.683Z,19.87
2017-04-05T12:20:27.977Z,19.8
2017-04-05T12:21:27.987Z,19.73
2017-04-05T12:22:27.987Z,19.66
2017-04-05T12:23:27.977Z,19.68
2017-04-05T12:24:27.976Z,19.66
2017-04-05T12:25:27.976Z,19.62
2017-04-05T12:26:27.669Z,19.65
2017-04-05T12:27:27.969Z,19.63
2017-04-05T12:28:27.966Z,19.63
2017-04-05T12:29:27.975Z,19.62
2017-04-05T12:30:27.967Z,19.63
2017-04-05T12:31:27.663Z,19.71
2017-04-05T12:32:27.963Z,19.74
2017-04-05T12:33:27.961Z,19.74
2017-04-05T12:34:27.958Z,19.71
2017-04-05T12:35:27.665Z,19.77
2017-04-05T12:36:27.955Z,19.95
2017-04-05T12:37:27.956Z,19.92
2017-04-05T12:38:27.950Z,20.03
2017-04-05T12:39:27.952Z,20.03
2017-04-05T12:40:27.645Z,20.2
2017-04-05T12:41:27.945Z,20.24
2017-04-05T12:42:27.944Z,20.24
2017-04-05T12:45:27.942Z,20.39
2017-04-05T12:46:27.943Z,20.48
2017-04-05T12:47:27.942Z,20.51
2017-04-05T12:48:27.636Z,20.66
2017-04-05T12:49:27.937Z,20.7
2017-04-05T12:50:27.935Z,20.82
2017-04-05T12:51:27.936Z,20.82
2017-04-05T12:52:27.327Z,20.91
2017-04-05T12:53:27.932Z,20.97
2017-04-05T12:54:27.930Z,20.91
2017-04-05T12:55:27.937Z,20.87
2017-04-05T12:56:27.935Z,20.79
2017-04-05T12:57:27.929Z,20.84